createdAt,value
2019-01-03T00:02:10.975Z,3.50
2019-01-03T00:05:05.875Z,2.30
2019-01-03T00:08:04.128Z,1.30
2019-01-03T00:10:59.106Z,2.85
2019-01-03T00:13:46.703Z,3.65
2019-01-03T00:16:38.316Z,2.63
2019-01-03T00:19:39.369Z,1.37
2019-01-03T00:22:38.512Z,3.40
2019-01-03T00:25:33.526Z,1.30
2019-01-03T00:28:35.905Z,7.83
2019-01-03T00:31:20.410Z,1.77
2019-01-03T00:34:07.863Z,4.92
2019-01-03T00:36:56.847Z,2.23
2019-01-03T00:39:45.866Z,2.37
2019-01-03T00:42:37.788Z,10.87
2019-01-03T00:45:20.855Z,3.60
2019-01-03T00:48:08.026Z,7.07
2019-01-03T00:50:47.196Z,3.83
2019-01-03T00:53:37.470Z,2.63
2019-01-03T00:56:28.035Z,1.20
2019-01-03T00:59:15.401Z,2.90
2019-01-03T01:02:03.582Z,3.85
2019-01-03T01:04:51.133Z,11.60
2019-01-03T01:07:52.239Z,3.70
2019-01-03T01:10:39.249Z,3.33
2019-01-03T01:13:40.022Z,7.03
2019-01-03T01:16:23.512Z,2.70
2019-01-03T01:19:11.452Z,0.98
2019-01-03T01:22:00.380Z,0.87
2019-01-03T01:25:07.124Z,1.57
2019-01-03T01:27:46.812Z,4.30
2019-01-03T01:30:44.501Z,8.93
2019-01-03T01:33:45.547Z,1.50
2019-01-03T01:36:29.964Z,6.22
2019-01-03T01:39:28.846Z,2.98
2019-01-03T01:42:09.741Z,3.85
2019-01-03T01:44:57.279Z,3.40
2019-01-03T01:47:46.376Z,3.72
2019-01-03T01:50:43.812Z,3.92
2019-01-03T01:53:41.740Z,2.03
2019-01-03T01:56:31.529Z,5.07
2019-01-03T01:59:19.514Z,6.95
2019-01-03T02:02:08.577Z,4.10
2019-01-03T02:04:57.448Z,2.00
2019-01-03T02:07:39.751Z,1.65
2019-01-03T02:10:34.630Z,5.40
2019-01-03T02:13:21.300Z,3.17
2019-01-03T02:16:10.363Z,1.33
2019-01-03T02:18:57.796Z,11.40
2019-01-03T02:21:58.823Z,6.33
2019-01-03T02:24:46.093Z,7.10
2019-01-03T02:27:34.312Z,2.45
2019-01-03T02:30:29.430Z,3.90
2019-01-03T02:33:18.466Z,3.37
2019-01-03T02:36:10.489Z,3.60
2019-01-03T02:38:58.379Z,1.73
2019-01-03T02:41:45.811Z,7.25
2019-01-03T02:44:33.113Z,0.93
2019-01-03T02:47:22.326Z,4.67
2019-01-03T02:50:06.397Z,7.72
2019-01-03T02:53:07.288Z,2.95
2019-01-03T02:55:54.758Z,3.30
2019-01-03T02:58:46.928Z,1.80
2019-01-03T03:01:42.479Z,2.65
2019-01-03T03:04:29.850Z,2.47
2019-01-03T03:07:26.118Z,3.13
2019-01-03T03:10:13.756Z,8.73
2019-01-03T03:12:54.762Z,3.90
2019-01-03T03:15:48.336Z,2.17
2019-01-03T03:18:37.101Z,5.70
2019-01-03T03:21:32.480Z,1.93
2019-01-03T03:24:23.962Z,5.60
2019-01-03T03:27:13.125Z,4.60
2019-01-03T03:30:08.112Z,4.53
2019-01-03T03:33:15.576Z,0.97
2019-01-03T03:36:02.976Z,3.37
2019-01-03T03:38:50.595Z,1.77
2019-01-03T03:41:48.672Z,11.03
2019-01-03T03:44:41.740Z,2.23
2019-01-03T03:47:48.569Z,9.20
2019-01-03T03:50:44.910Z,9.13
2019-01-03T03:53:31.304Z,3.90
2019-01-03T03:56:26.863Z,3.33
2019-01-03T03:59:23.041Z,1.30
2019-01-03T04:02:17.669Z,5.25
2019-01-03T04:05:19.564Z,3.57
2019-01-03T04:08:08.560Z,1.65
2019-01-03T04:10:57.541Z,2.90
2019-01-03T04:13:49.121Z,6.65
2019-01-03T04:16:47.641Z,1.85
2019-01-03T04:19:38.516Z,2.43
2019-01-03T04:22:38.410Z,7.95
2019-01-03T04:25:28.801Z,1.77
2019-01-03T04:28:32.461Z,1.70
2019-01-03T04:31:17.778Z,4.20
2019-01-03T04:34:03.659Z,2.26
2019-01-03T04:36:50.802Z,1.30
2019-01-03T04:39:40.994Z,4.40
2019-01-03T04:42:38.670Z,1.50
2019-01-03T04:45:42.632Z,9.33
2019-01-03T04:48:31.560Z,12.30
2019-01-03T04:51:20.627Z,7.60
2019-01-03T04:54:15.289Z,3.83
2019-01-03T04:57:19.059Z,4.70
2019-01-03T05:00:06.987Z,3.33
2019-01-03T05:02:54.858Z,6.20
2019-01-03T05:05:49.527Z,4.14
2019-01-03T05:08:41.817Z,7.10
2019-01-03T05:11:28.975Z,3.10
2019-01-03T05:14:20.553Z,5.70
2019-01-03T05:17:09.552Z,1.70
2019-01-03T05:20:16.650Z,1.93
2019-01-03T05:23:20.396Z,3.97
2019-01-03T05:26:07.108Z,5.57
2019-01-03T05:28:54.780Z,2.43
2019-01-03T05:31:52.584Z,4.55
2019-01-03T05:34:42.677Z,2.80
2019-01-03T05:37:30.189Z,2.70
2019-01-03T05:40:17.680Z,6.33
2019-01-03T05:43:21.011Z,6.10
2019-01-03T05:46:21.007Z,1.73
2019-01-03T05:49:08.498Z,2.17
2019-01-03T05:52:12.178Z,1.40
2019-01-03T05:54:59.573Z,1.10
2019-01-03T05:58:05.201Z,2.40
2019-01-03T06:00:54.398Z,3.23
2019-01-03T06:03:38.182Z,9.00
2019-01-03T06:06:27.151Z,8.68
2019-01-03T06:09:14.356Z,1.60
2019-01-03T06:12:00.129Z,1.67
2019-01-03T06:15:07.148Z,1.37
2019-01-03T06:18:04.893Z,1.77
2019-01-03T06:20:52.209Z,2.30
2019-01-03T06:23:59.306Z,3.67
2019-01-03T06:26:46.493Z,3.08
2019-01-03T06:29:32.256Z,10.97
2019-01-03T06:32:21.152Z,9.20
2019-01-03T06:35:08.986Z,2.53
2019-01-03T06:37:56.412Z,2.47
2019-01-03T06:40:45.394Z,6.50
2019-01-03T06:43:32.783Z,3.37
2019-01-03T06:46:25.261Z,3.23
2019-01-03T06:49:07.145Z,2.45
2019-01-03T06:51:49.873Z,4.17
2019-01-03T06:54:38.019Z,7.25
2019-01-03T06:57:27.407Z,3.00
2019-01-03T07:00:19.199Z,2.17
2019-01-03T07:03:06.827Z,1.60
2019-01-03T07:06:01.527Z,1.80
2019-01-03T07:08:48.985Z,2.15
2019-01-03T07:11:36.663Z,1.57
2019-01-03T07:14:31.607Z,2.23
2019-01-03T07:17:26.339Z,1.90
2019-01-03T07:20:29.245Z,3.10
2019-01-03T07:23:21.721Z,2.13
2019-01-03T07:26:09.012Z,8.43
2019-01-03T07:29:12.949Z,5.70
2019-01-03T07:32:00.448Z,8.80
2019-01-03T07:35:01.077Z,2.00
2019-01-03T07:37:52.919Z,2.63
2019-01-03T07:40:42.029Z,6.78
2019-01-03T07:43:29.431Z,6.43
2019-01-03T07:46:18.350Z,2.77
2019-01-03T07:49:01.473Z,1.57
2019-01-03T07:51:48.991Z,7.30
2019-01-03T07:54:41.428Z,4.53
2019-01-03T07:57:39.542Z,2.13
2019-01-03T08:00:27.271Z,3.67
2019-01-03T08:03:14.769Z,3.27
2019-01-03T08:06:09.809Z,5.47
2019-01-03T08:08:59.048Z,8.60
2019-01-03T08:11:50.171Z,2.40
2019-01-03T08:14:34.232Z,4.30
2019-01-03T08:17:29.125Z,6.67
2019-01-03T08:20:21.284Z,4.53
2019-01-03T08:23:10.849Z,4.60
2019-01-03T08:25:58.359Z,4.00
2019-01-03T08:28:48.528Z,1.93
2019-01-03T08:31:41.740Z,4.07
2019-01-03T08:34:42.617Z,4.10
2019-01-03T08:37:31.893Z,3.20
2019-01-03T08:40:39.691Z,6.23
2019-01-03T08:43:31.474Z,1.73
2019-01-03T08:46:19.242Z,4.43
2019-01-03T08:49:00.749Z,2.25
2019-01-03T08:51:47.913Z,4.73
2019-01-03T08:54:28.502Z,6.03
2019-01-03T08:57:26.527Z,5.03
2019-01-03T09:00:19.582Z,3.80
2019-01-03T09:03:24.254Z,2.55
2019-01-03T09:06:16.926Z,2.67
2019-01-03T09:09:06.311Z,2.60
2019-01-03T09:11:55.345Z,3.70
2019-01-03T09:14:53.371Z,5.30
2019-01-03T09:17:40.736Z,3.65
2019-01-03T09:20:29.998Z,1.53
2019-01-03T09:23:17.577Z,2.50
2019-01-03T09:26:10.259Z,8.83
2019-01-03T09:28:57.530Z,4.85
2019-01-03T09:31:45.092Z,3.83
2019-01-03T09:34:34.035Z,1.90
2019-01-03T09:37:26.806Z,7.23
2019-01-03T09:40:10.697Z,2.50
2019-01-03T09:43:08.491Z,2.87
2019-01-03T09:45:44.208Z,10.30
2019-01-03T09:48:10.214Z,4.23
2019-01-03T09:50:40.241Z,5.83
2019-01-03T09:53:10.376Z,8.63
2019-01-03T09:55:41.798Z,5.58
2019-01-03T09:58:11.881Z,4.23
2019-01-03T10:00:41.971Z,1.57
2019-01-03T10:03:12.135Z,1.57
2019-01-03T10:05:42.907Z,4.73
2019-01-03T10:08:19.553Z,1.07
2019-01-03T10:10:45.690Z,3.17
2019-01-03T10:13:15.677Z,2.23
2019-01-03T10:15:46.049Z,9.50
2019-01-03T10:18:16.049Z,2.07
2019-01-03T10:20:46.115Z,5.87
2019-01-03T10:23:16.227Z,4.27
2019-01-03T10:25:46.280Z,2.03
2019-01-03T10:28:16.306Z,2.40
2019-01-03T10:30:46.373Z,2.13
2019-01-03T10:33:16.300Z,3.80
2019-01-03T10:35:46.399Z,3.63
2019-01-03T10:38:20.943Z,1.77
2019-01-03T10:40:48.196Z,5.80
2019-01-03T10:43:18.900Z,3.15
2019-01-03T10:45:48.943Z,4.33
2019-01-03T10:48:19.015Z,8.87
2019-01-03T10:50:49.393Z,4.23
2019-01-03T10:53:19.355Z,1.90
2019-01-03T10:55:49.391Z,2.60
2019-01-03T10:58:19.448Z,6.23
2019-01-03T11:00:49.534Z,2.27
2019-01-03T11:03:21.014Z,2.50
2019-01-03T11:05:51.100Z,2.03
2019-01-03T11:08:21.102Z,4.13
2019-01-03T11:10:51.415Z,2.60
2019-01-03T11:13:21.764Z,2.20
2019-01-03T11:15:51.864Z,4.80
2019-01-03T11:18:21.785Z,1.60
2019-01-03T11:20:52.911Z,4.10
2019-01-03T11:23:22.913Z,2.75
2019-01-03T11:25:53.040Z,2.65
2019-01-03T11:28:23.052Z,4.72
2019-01-03T11:30:53.067Z,7.93
2019-01-03T11:33:23.007Z,2.52
2019-01-03T11:35:52.984Z,6.25
2019-01-03T11:38:23.071Z,6.75
2019-01-03T11:40:53.064Z,3.30
2019-01-03T11:43:23.187Z,4.35
2019-01-03T11:45:53.487Z,2.60
2019-01-03T11:48:23.573Z,19.50
2019-01-03T11:50:53.504Z,4.63
2019-01-03T11:53:23.911Z,4.30
2019-01-03T11:55:54.033Z,5.10
2019-01-03T11:58:25.280Z,4.93
2019-01-03T12:00:55.640Z,7.60
2019-01-03T12:03:25.659Z,3.27
2019-01-03T12:05:55.842Z,2.17
2019-01-03T12:08:25.759Z,4.67
2019-01-03T12:10:56.065Z,1.60
2019-01-03T12:13:26.177Z,1.75
2019-01-03T12:15:56.309Z,2.08
2019-01-03T12:18:26.342Z,1.70
2019-01-03T12:20:56.676Z,5.73
2019-01-03T12:23:27.356Z,3.80
2019-01-03T12:25:57.425Z,6.50
2019-01-03T12:28:27.585Z,7.23
2019-01-03T12:30:59.357Z,5.17
2019-01-03T12:33:29.330Z,2.47
2019-01-03T12:35:59.664Z,2.90
2019-01-03T12:38:29.720Z,5.93
2019-01-03T12:40:59.712Z,1.43
2019-01-03T12:43:29.744Z,1.77
2019-01-03T12:45:59.778Z,4.50
2019-01-03T12:48:29.872Z,8.37
2019-01-03T12:51:00.196Z,5.30
2019-01-03T12:53:30.131Z,3.33
2019-01-03T12:56:00.236Z,1.83
2019-01-03T12:58:30.614Z,2.80
2019-01-03T13:01:01.143Z,7.83
2019-01-03T13:03:31.114Z,9.97
2019-01-03T13:06:01.409Z,1.77
2019-01-03T13:08:31.379Z,3.80
2019-01-03T13:11:01.656Z,4.93
2019-01-03T13:13:31.658Z,9.10
2019-01-03T13:16:01.674Z,5.17
2019-01-03T13:18:31.673Z,5.83
2019-01-03T13:21:01.690Z,2.50
2019-01-03T13:23:31.760Z,3.80
2019-01-03T13:26:01.778Z,2.33
2019-01-03T13:28:31.673Z,2.90
2019-01-03T13:31:01.620Z,2.80
2019-01-03T13:33:31.549Z,3.50
2019-01-03T13:36:01.537Z,2.60
2019-01-03T13:38:31.606Z,4.73
2019-01-03T13:41:01.593Z,2.70
2019-01-03T13:43:31.673Z,4.47
2019-01-03T13:46:01.658Z,6.80
2019-01-03T13:48:31.798Z,6.07
2019-01-03T13:51:01.734Z,2.67
2019-01-03T13:53:31.893Z,2.70
2019-01-03T13:56:01.969Z,4.07
2019-01-03T13:58:31.929Z,3.63
2019-01-03T14:01:01.957Z,2.10
2019-01-03T14:03:32.176Z,7.37
2019-01-03T14:06:02.375Z,4.17
2019-01-03T14:08:32.480Z,4.50
2019-01-03T14:11:02.542Z,3.40
2019-01-03T14:13:32.631Z,11.75
2019-01-03T14:16:02.743Z,2.80
2019-01-03T14:18:33.353Z,2.77
2019-01-03T14:21:03.369Z,2.03
2019-01-03T14:23:33.406Z,4.67
2019-01-03T14:26:03.533Z,3.90
2019-01-03T14:28:33.907Z,3.37
2019-01-03T14:31:04.281Z,3.97
2019-01-03T14:33:35.027Z,6.40
2019-01-03T14:36:05.134Z,7.50
2019-01-03T14:38:35.131Z,2.20
2019-01-03T14:41:05.239Z,5.67
2019-01-03T14:43:35.160Z,3.60
2019-01-03T14:46:05.307Z,6.20
2019-01-03T14:48:35.461Z,6.53
2019-01-03T14:51:05.618Z,3.67
2019-01-03T14:53:35.617Z,9.93
2019-01-03T14:56:05.739Z,2.20
2019-01-03T14:58:35.740Z,4.30
2019-01-03T15:01:05.865Z,3.93
2019-01-03T15:03:35.954Z,6.53
2019-01-03T15:06:06.077Z,9.28
2019-01-03T15:08:36.161Z,4.70
2019-01-03T15:11:06.340Z,8.20
2019-01-03T15:13:36.360Z,5.60
2019-01-03T15:16:06.518Z,5.73
2019-01-03T15:18:36.633Z,4.63
2019-01-03T15:21:07.533Z,10.03
2019-01-03T15:23:37.637Z,4.20
2019-01-03T15:26:07.749Z,5.70
2019-01-03T15:28:37.812Z,5.33
2019-01-03T15:31:08.042Z,10.00
2019-01-03T15:33:38.719Z,4.55
2019-01-03T15:36:08.830Z,6.72
2019-01-03T15:38:38.784Z,11.45
2019-01-03T15:41:08.861Z,7.20
2019-01-03T15:43:38.961Z,11.75
2019-01-03T15:46:09.037Z,5.77
2019-01-03T15:48:39.107Z,3.75
2019-01-03T15:51:09.105Z,4.87
2019-01-03T15:53:39.180Z,13.90
2019-01-03T15:56:09.218Z,3.47
2019-01-03T15:58:39.210Z,4.40
2019-01-03T16:01:09.230Z,3.90
2019-01-03T16:03:39.326Z,7.70
2019-01-03T16:06:10.424Z,11.00
2019-01-03T16:08:40.499Z,2.95
2019-01-03T16:11:10.451Z,5.47
2019-01-03T16:13:40.544Z,7.22
2019-01-03T16:16:10.577Z,4.08
2019-01-03T16:18:40.517Z,4.63
2019-01-03T16:21:10.672Z,4.00
2019-01-03T16:23:40.720Z,3.17
2019-01-03T16:26:10.629Z,2.63
2019-01-03T16:28:40.569Z,6.28
2019-01-03T16:31:10.638Z,8.97
2019-01-03T16:33:40.581Z,10.08
2019-01-03T16:36:10.745Z,3.60
2019-01-03T16:38:40.784Z,6.37
2019-01-03T16:41:10.830Z,5.30
2019-01-03T16:43:41.781Z,3.27
2019-01-03T16:46:11.772Z,3.90
2019-01-03T16:48:41.827Z,4.08
2019-01-03T16:51:11.998Z,7.60
2019-01-03T16:53:42.156Z,3.00
2019-01-03T16:56:12.145Z,6.77
2019-01-03T16:58:42.184Z,13.33
2019-01-03T17:01:12.206Z,2.47
2019-01-03T17:03:42.227Z,7.33
2019-01-03T17:06:12.191Z,2.93
2019-01-03T17:08:42.306Z,4.73
2019-01-03T17:11:13.128Z,7.43
2019-01-03T17:13:43.209Z,2.90
2019-01-03T17:16:13.267Z,6.93
2019-01-03T17:18:43.401Z,3.33
2019-01-03T17:21:13.548Z,4.90
2019-01-03T17:23:43.594Z,9.10
2019-01-03T17:26:13.672Z,5.70
2019-01-03T17:28:43.703Z,3.60
2019-01-03T17:31:13.786Z,6.33
2019-01-03T17:33:43.731Z,4.00
2019-01-03T17:36:13.798Z,4.33
2019-01-03T17:38:43.811Z,2.50
2019-01-03T17:41:14.710Z,3.67
2019-01-03T17:43:44.807Z,8.13
2019-01-03T17:46:14.962Z,4.63
2019-01-03T17:48:45.928Z,8.93
2019-01-03T17:51:16.028Z,12.13
2019-01-03T17:53:46.054Z,4.77
2019-01-03T17:56:16.206Z,6.00
2019-01-03T17:58:46.130Z,11.47
2019-01-03T18:01:16.240Z,10.07
2019-01-03T18:03:46.338Z,5.50
2019-01-03T18:06:16.412Z,7.30
2019-01-03T18:08:46.425Z,4.25
2019-01-03T18:11:16.543Z,7.12
2019-01-03T18:13:48.771Z,4.40
2019-01-03T18:16:18.985Z,7.50
2019-01-03T18:18:49.117Z,7.47
2019-01-03T18:21:19.070Z,7.03
2019-01-03T18:23:49.185Z,7.03
2019-01-03T18:26:19.185Z,13.43
2019-01-03T18:28:49.149Z,3.97
2019-01-03T18:31:19.191Z,15.40
2019-01-03T18:33:49.293Z,6.33
2019-01-03T18:36:19.397Z,6.90
2019-01-03T18:38:52.824Z,5.03
2019-01-03T18:41:22.856Z,6.15
2019-01-03T18:43:52.949Z,7.00
2019-01-03T18:46:22.944Z,3.45
2019-01-03T18:48:52.973Z,14.30
2019-01-03T18:51:22.942Z,5.12
2019-01-03T18:53:52.955Z,4.17
2019-01-03T18:56:22.986Z,10.53
2019-01-03T18:58:53.068Z,3.50
2019-01-03T19:01:23.170Z,5.78
2019-01-03T19:03:53.140Z,6.57
2019-01-03T19:06:24.022Z,8.50
2019-01-03T19:08:54.945Z,10.20
2019-01-03T19:11:25.060Z,12.45
2019-01-03T19:13:55.046Z,7.33
2019-01-03T19:16:25.061Z,9.65
2019-01-03T19:18:55.133Z,10.00
2019-01-03T19:21:25.334Z,10.68
2019-01-03T19:23:55.542Z,10.07
2019-01-03T19:26:25.563Z,6.33
2019-01-03T19:28:55.606Z,16.33
2019-01-03T19:31:25.632Z,13.72
2019-01-03T19:33:55.627Z,7.23
2019-01-03T19:36:25.528Z,5.17
2019-01-03T19:38:55.570Z,5.47
2019-01-03T19:41:25.624Z,5.33
2019-01-03T19:43:55.722Z,6.43
2019-01-03T19:46:25.773Z,6.10
2019-01-03T19:48:56.245Z,4.83
2019-01-03T19:51:26.440Z,8.35
2019-01-03T19:53:56.554Z,3.35
2019-01-03T19:56:26.995Z,3.33
2019-01-03T19:58:56.936Z,18.97
2019-01-03T20:01:27.006Z,4.90
2019-01-03T20:03:57.849Z,5.50
2019-01-03T20:06:28.024Z,6.80
2019-01-03T20:08:57.970Z,14.87
2019-01-03T20:11:28.022Z,8.90
2019-01-03T20:13:58.159Z,4.40
2019-01-03T20:16:28.253Z,8.97
2019-01-03T20:18:58.224Z,6.50
2019-01-03T20:21:29.463Z,8.63
2019-01-03T20:23:59.566Z,6.87
2019-01-03T20:26:29.610Z,6.85
2019-01-03T20:29:00.980Z,11.15
2019-01-03T20:31:31.163Z,9.10
2019-01-03T20:34:01.191Z,7.60
2019-01-03T20:36:31.280Z,11.97
2019-01-03T20:39:01.356Z,9.20
2019-01-03T20:41:31.428Z,7.10
2019-01-03T20:44:01.546Z,8.23
2019-01-03T20:46:31.655Z,14.55
2019-01-03T20:49:01.765Z,15.93
2019-01-03T20:51:31.902Z,6.10
2019-01-03T20:54:02.014Z,10.67
2019-01-03T20:56:32.229Z,6.63
2019-01-03T20:59:02.519Z,7.63
2019-01-03T21:01:32.808Z,5.90
2019-01-03T21:04:02.841Z,4.83
2019-01-03T21:06:32.824Z,5.40
2019-01-03T21:09:03.673Z,10.93
2019-01-03T21:11:34.217Z,10.80
2019-01-03T21:14:04.720Z,13.13
2019-01-03T21:16:35.001Z,20.60
2019-01-03T21:19:05.493Z,12.65
2019-01-03T21:21:36.046Z,15.10
2019-01-03T21:24:06.143Z,22.58
2019-01-03T21:26:36.697Z,17.13
2019-01-03T21:29:06.815Z,12.53
2019-01-03T21:31:37.005Z,13.93
2019-01-03T21:34:07.103Z,20.30
2019-01-03T21:36:37.206Z,17.43
2019-01-03T21:39:08.809Z,11.22
2019-01-03T21:41:38.898Z,22.42
2019-01-03T21:44:08.919Z,17.47
2019-01-03T21:46:39.024Z,15.68
2019-01-03T21:49:09.178Z,15.57
2019-01-03T21:51:39.392Z,19.42
2019-01-03T21:54:09.490Z,17.57
2019-01-03T21:56:39.575Z,13.53
2019-01-03T21:59:09.672Z,17.70
2019-01-03T22:01:39.740Z,20.72
2019-01-03T22:04:10.755Z,16.70
2019-01-03T22:06:40.856Z,14.87
2019-01-03T22:09:10.872Z,11.47
2019-01-03T22:11:40.901Z,19.50
2019-01-03T22:14:11.075Z,20.13
2019-01-03T22:16:41.220Z,14.00
2019-01-03T22:19:11.246Z,20.43
2019-01-03T22:21:41.340Z,13.37
2019-01-03T22:24:11.441Z,19.43
2019-01-03T22:26:41.365Z,12.23
2019-01-03T22:29:11.441Z,17.13
2019-01-03T22:31:41.444Z,26.80
2019-01-03T22:34:11.766Z,19.90
2019-01-03T22:36:42.682Z,16.05
2019-01-03T22:39:12.837Z,18.77
2019-01-03T22:41:42.873Z,16.00
2019-01-03T22:44:12.955Z,14.33
2019-01-03T22:46:43.068Z,25.65
2019-01-03T22:49:12.979Z,23.50
2019-01-03T22:51:42.997Z,19.50
2019-01-03T22:54:13.092Z,21.80
2019-01-03T22:56:43.125Z,20.53
2019-01-03T22:59:13.183Z,20.80
2019-01-03T23:01:44.277Z,11.47
2019-01-03T23:04:14.614Z,22.23
2019-01-03T23:06:44.973Z,14.60
2019-01-03T23:09:14.998Z,25.17
2019-01-03T23:11:45.010Z,24.95
2019-01-03T23:14:14.992Z,24.43
2019-01-03T23:16:45.096Z,20.82
2019-01-03T23:19:15.136Z,19.82
2019-01-03T23:21:45.173Z,19.67
2019-01-03T23:24:15.216Z,21.43
2019-01-03T23:26:45.147Z,20.48
2019-01-03T23:29:15.101Z,21.47
2019-01-03T23:31:45.203Z,25.30
2019-01-03T23:34:15.252Z,18.30
2019-01-03T23:36:45.262Z,19.55
2019-01-03T23:39:15.270Z,16.47
2019-01-03T23:41:45.373Z,26.47
2019-01-03T23:44:15.513Z,25.80
2019-01-03T23:46:45.994Z,22.82
2019-01-03T23:49:16.221Z,24.23
2019-01-03T23:51:46.341Z,23.53
2019-01-03T23:54:16.923Z,27.67
2019-01-03T23:56:47.099Z,27.30
2019-01-03T23:59:17.193Z,22.73
